Time;durP1;ratioP1;P1;durP2;ratioP2;P2;SDS_P1;SDS_P2;PMS_P1;PMS_P2;Temp;Humidity;BMP_temperature;BMP_pressure;BME280_temperature;BME280_humidity;BME280_pressure;Samples;Min_cycle;Max_cycle;Signal;HPM_P1;HPM_P2
2021/07/06 00:00:16;;;;;;;1.92;1.15;;;8.80;99.90;;;;;;5084903;28;20451;-82
2021/07/06 00:02:44;;;;;;;2.60;1.15;;;8.90;99.90;;;;;;5066829;28;20413;-81
2021/07/06 00:05:12;;;;;;;1.80;0.93;;;8.90;99.90;;;;;;5059158;28;20429;-82
2021/07/06 00:07:39;;;;;;;1.77;0.98;;;8.90;99.90;;;;;;5062579;28;20394;-82
2021/07/06 00:10:08;;;;;;;3.53;0.90;;;9.00;99.90;;;;;;5059966;28;20469;-81
2021/07/06 00:12:36;;;;;;;1.38;1.00;;;9.00;99.90;;;;;;5064319;28;20736;-82
2021/07/06 00:15:05;;;;;;;2.53;1.00;;;9.10;99.90;;;;;;5065440;28;20453;-82
2021/07/06 00:17:32;;;;;;;2.20;0.80;;;9.20;99.90;;;;;;5067971;28;20406;-81
2021/07/06 00:19:59;;;;;;;2.20;0.90;;;9.40;99.90;;;;;;5092716;28;20912;-81
2021/07/06 00:22:26;;;;;;;2.53;0.87;;;9.80;99.90;;;;;;5070516;28;20492;-82
2021/07/06 00:24:53;;;;;;;2.13;0.80;;;10.30;99.90;;;;;;5065818;28;20384;-82
2021/07/06 00:27:20;;;;;;;1.80;0.70;;;10.60;99.90;;;;;;5067014;28;20380;-80
2021/07/06 00:29:46;;;;;;;2.42;0.70;;;10.80;99.90;;;;;;5070506;28;20370;-82
2021/07/06 00:32:13;;;;;;;1.80;0.65;;;10.80;99.90;;;;;;5071693;28;20452;-82
2021/07/06 00:34:40;;;;;;;3.22;0.85;;;10.90;99.90;;;;;;5058153;28;20393;-83
2021/07/06 00:37:07;;;;;;;1.33;0.70;;;10.80;99.90;;;;;;5060763;28;20386;-81
2021/07/06 00:39:34;;;;;;;2.22;0.80;;;10.60;99.90;;;;;;5054603;28;20873;-82
2021/07/06 00:42:06;;;;;;;2.60;0.93;;;10.50;99.90;;;;;;5061436;28;20913;-82
2021/07/06 00:44:34;;;;;;;1.08;0.70;;;10.40;99.90;;;;;;5060168;28;20375;-82
2021/07/06 00:47:01;;;;;;;1.92;0.70;;;10.30;99.90;;;;;;5068362;28;20394;-82
2021/07/06 00:49:28;;;;;;;2.30;0.70;;;10.30;99.90;;;;;;5071917;28;21058;-81
2021/07/06 00:51:55;;;;;;;1.63;0.70;;;10.20;99.90;;;;;;5056647;28;20478;-82
2021/07/06 00:54:22;;;;;;;3.30;0.90;;;10.30;99.90;;;;;;5050770;28;20413;-82
2021/07/06 00:56:49;;;;;;;2.20;0.90;;;10.30;99.90;;;;;;5053151;28;20419;-82
2021/07/06 00:59:19;;;;;;;2.45;0.80;;;10.40;99.90;;;;;;5075994;28;20913;-83
2021/07/06 01:01:45;;;;;;;2.00;1.00;;;10.50;99.90;;;;;;5066508;28;20411;-82
2021/07/06 01:04:13;;;;;;;3.65;1.02;;;10.50;99.90;;;;;;5055854;28;20384;-81
2021/07/06 01:06:40;;;;;;;1.90;0.77;;;10.60;99.90;;;;;;5062561;28;21120;-80
2021/07/06 01:09:07;;;;;;;2.13;1.00;;;10.60;99.90;;;;;;5059095;28;20496;-81
2021/07/06 01:11:35;;;;;;;3.30;0.80;;;10.70;99.90;;;;;;5066838;28;20390;-80
2021/07/06 01:14:03;;;;;;;1.85;1.08;;;10.60;99.90;;;;;;5056240;28;20443;-81
2021/07/06 01:16:30;;;;;;;3.30;0.85;;;10.70;99.90;;;;;;5052244;28;20870;-80
2021/07/06 01:18:58;;;;;;;4.40;1.13;;;10.70;99.90;;;;;;5061474;28;20425;-80
2021/07/06 01:21:25;;;;;;;2.65;1.00;;;10.70;99.90;;;;;;5055239;28;20399;-82
2021/07/06 01:23:52;;;;;;;4.50;1.08;;;10.70;99.90;;;;;;5067864;28;20407;-81
2021/07/06 01:26:19;;;;;;;2.38;1.30;;;10.80;99.90;;;;;;5060538;28;20375;-81
2021/07/06 01:28:46;;;;;;;4.20;1.38;;;10.80;99.90;;;;;;5054251;28;20404;-81
2021/07/06 01:31:13;;;;;;;3.45;1.33;;;10.80;99.90;;;;;;5058342;28;20879;-81
2021/07/06 01:33:43;;;;;;;5.82;1.60;;;10.90;99.90;;;;;;5067325;28;20504;-83
2021/07/06 01:36:10;;;;;;;3.90;1.57;;;10.90;99.90;;;;;;5053094;28;20376;-83
2021/07/06 01:38:41;;;;;;;2.97;1.60;;;10.80;99.90;;;;;;5057984;28;20405;-82
2021/07/06 01:41:08;;;;;;;3.45;1.60;;;10.90;99.90;;;;;;5068114;28;20487;-82
2021/07/06 01:43:35;;;;;;;3.83;1.87;;;10.90;99.90;;;;;;5064589;28;20565;-82
2021/07/06 01:46:03;;;;;;;4.35;1.75;;;10.90;99.90;;;;;;5062154;28;20392;-82
2021/07/06 01:48:30;;;;;;;5.30;1.77;;;10.90;99.90;;;;;;5054004;28;20386;-81
2021/07/06 01:50:58;;;;;;;2.20;1.60;;;10.90;99.90;;;;;;5058222;28;20378;-81
2021/07/06 01:53:25;;;;;;;6.20;2.03;;;11.00;99.90;;;;;;5067203;28;20450;-82
2021/07/06 01:55:54;;;;;;;3.42;2.00;;;11.00;99.90;;;;;;5053421;28;20383;-81
2021/07/06 01:58:25;;;;;;;4.10;1.80;;;11.10;99.90;;;;;;5066402;28;20382;-83
2021/07/06 02:00:59;;;;;;;3.35;1.77;;;11.20;99.90;;;;;;5058271;28;20409;-81
2021/07/06 02:03:28;;;;;;;3.47;1.60;;;11.30;99.90;;;;;;5067812;28;20405;-83
2021/07/06 02:05:59;;;;;;;2.50;1.45;;;11.30;99.90;;;;;;5065115;28;20481;-82
2021/07/06 02:08:27;;;;;;;2.90;1.63;;;11.20;99.90;;;;;;5072730;28;20380;-80
2021/07/06 02:10:58;;;;;;;4.47;2.03;;;11.20;99.90;;;;;;5052510;28;20383;-80
2021/07/06 02:13:26;;;;;;;3.83;1.60;;;11.40;99.90;;;;;;5063242;28;20467;-81
2021/07/06 02:15:55;;;;;;;2.53;1.45;;;11.40;99.90;;;;;;5062558;28;20382;-81
2021/07/06 02:18:23;;;;;;;3.10;1.67;;;11.40;99.90;;;;;;5055400;28;20400;-81
2021/07/06 02:20:56;;;;;;;4.25;1.60;;;11.50;99.90;;;;;;5059418;28;21163;-83
2021/07/06 02:23:24;;;;;;;4.47;2.10;;;11.60;99.90;;;;;;5059627;28;20403;-82
2021/07/06 02:25:52;;;;;;;3.65;1.52;;;11.60;99.90;;;;;;5068045;28;20460;-84
2021/07/06 02:28:19;;;;;;;3.20;1.55;;;11.60;99.90;;;;;;5067278;28;20382;-83
2021/07/06 02:30:48;;;;;;;4.65;1.42;;;11.60;99.90;;;;;;5055159;28;20376;-83
2021/07/06 02:33:16;;;;;;;2.47;1.20;;;11.60;99.90;;;;;;5056479;28;20728;-83
2021/07/06 02:35:44;;;;;;;3.67;1.20;;;11.60;99.90;;;;;;5051578;28;20382;-82
2021/07/06 02:38:12;;;;;;;3.83;1.45;;;11.70;99.90;;;;;;5050131;28;20388;-81
2021/07/06 02:40:39;;;;;;;2.22;1.38;;;11.80;99.90;;;;;;5048091;28;20751;-81
2021/07/06 02:43:06;;;;;;;2.13;1.30;;;11.80;99.90;;;;;;5052077;28;20430;-81
2021/07/06 02:45:33;;;;;;;4.28;1.40;;;11.90;99.90;;;;;;5049749;28;20382;-82
2021/07/06 02:48:01;;;;;;;6.60;1.57;;;11.90;99.90;;;;;;5056898;28;20450;-81
2021/07/06 02:50:28;;;;;;;2.80;1.45;;;11.90;99.90;;;;;;5080030;28;20382;-82
2021/07/06 02:52:55;;;;;;;3.47;1.50;;;12.00;99.90;;;;;;5073751;28;20421;-82
2021/07/06 02:55:25;;;;;;;3.03;1.60;;;12.00;99.90;;;;;;5072290;28;20377;-82
2021/07/06 02:57:53;;;;;;;6.25;1.90;;;12.10;99.90;;;;;;5069125;28;20865;-81
2021/07/06 03:00:25;;;;;;;2.38;1.50;;;12.20;99.90;;;;;;5069724;28;20382;-81
2021/07/06 03:02:55;;;;;;;5.72;1.75;;;12.20;99.90;;;;;;5067525;28;20409;-83
2021/07/06 03:05:24;;;;;;;3.50;1.50;;;12.20;99.90;;;;;;5079946;28;20376;-81
2021/07/06 03:07:52;;;;;;;4.53;1.67;;;12.30;99.90;;;;;;5069325;28;20393;-79
2021/07/06 03:10:25;;;;;;;4.28;1.85;;;12.30;99.90;;;;;;5063862;28;20465;-81
2021/07/06 03:12:53;;;;;;;4.70;1.88;;;12.50;99.90;;;;;;5048975;28;20376;-81
2021/07/06 03:15:23;;;;;;;1.90;1.60;;;12.60;99.90;;;;;;5049409;28;20411;-82
2021/07/06 03:17:50;;;;;;;3.78;1.60;;;12.60;99.90;;;;;;5049132;28;20894;-79
2021/07/06 03:20:20;;;;;;;3.38;1.60;;;12.70;99.90;;;;;;5051292;28;20981;-80
2021/07/06 03:22:48;;;;;;;1.97;1.27;;;12.70;99.90;;;;;;5048972;28;20461;-81
2021/07/06 03:25:17;;;;;;;1.73;0.95;;;12.60;99.90;;;;;;5048842;28;20451;-83
2021/07/06 03:27:44;;;;;;;3.38;1.25;;;12.70;99.10;;;;;;5049126;28;20858;-80
2021/07/06 03:30:23;;;;;;;2.85;1.20;;;12.90;99.20;;;;;;5053519;28;20718;-81
2021/07/06 03:32:53;;;;;;;3.00;1.10;;;13.00;98.00;;;;;;5055635;28;20395;-80
2021/07/06 03:35:20;;;;;;;1.38;0.60;;;13.10;98.20;;;;;;5049230;28;20774;-81
2021/07/06 03:37:48;;;;;;;1.80;0.70;;;13.00;98.60;;;;;;5048972;28;21048;-80
2021/07/06 03:40:15;;;;;;;1.60;0.70;;;13.00;98.10;;;;;;5048595;28;20368;-81
2021/07/06 03:42:42;;;;;;;2.10;0.80;;;13.00;99.00;;;;;;5059870;28;20408;-80
2021/07/06 03:45:15;;;;;;;4.25;1.20;;;13.00;99.70;;;;;;5052188;28;21327;-81
2021/07/06 03:47:42;;;;;;;1.80;0.90;;;13.00;98.50;;;;;;5051783;28;20394;-83
2021/07/06 03:50:17;;;;;;;1.77;0.80;;;13.10;98.00;;;;;;5062066;28;20439;-82
2021/07/06 03:52:45;;;;;;;2.88;0.90;;;13.00;97.70;;;;;;5068315;28;20451;-82
2021/07/06 03:55:13;;;;;;;1.70;0.88;;;13.10;98.80;;;;;;5066485;28;20404;-83
2021/07/06 03:57:41;;;;;;;3.28;0.93;;;13.10;99.00;;;;;;5067124;28;20389;-82
2021/07/06 04:00:11;;;;;;;3.40;0.60;;;13.20;99.20;;;;;;5062164;28;20390;-83
2021/07/06 04:02:39;;;;;;;0.70;0.50;;;13.20;99.20;;;;;;5051458;28;20409;-82
2021/07/06 04:05:09;;;;;;;1.90;0.70;;;13.20;98.80;;;;;;5052479;28;20380;-82
2021/07/06 04:07:41;;;;;;;1.40;0.30;;;13.20;98.60;;;;;;5048843;28;20446;-83
2021/07/06 04:10:11;;;;;;;3.58;0.40;;;13.20;97.00;;;;;;5048601;28;20372;-82
2021/07/06 04:12:39;;;;;;;0.60;0.40;;;13.30;96.70;;;;;;5080677;28;20372;-81
2021/07/06 04:15:07;;;;;;;1.50;0.60;;;13.30;97.00;;;;;;5088502;28;20383;-81
2021/07/06 04:17:35;;;;;;;0.90;0.50;;;13.30;96.30;;;;;;5073083;28;20384;-81
2021/07/06 04:20:04;;;;;;;2.22;0.30;;;13.40;95.80;;;;;;5068134;28;20374;-81
2021/07/06 04:22:32;;;;;;;0.82;0.30;;;13.30;96.70;;;;;;5068387;28;20401;-82
2021/07/06 04:24:59;;;;;;;0.80;0.40;;;13.30;96.60;;;;;;5068475;28;20378;-82
2021/07/06 04:27:26;;;;;;;2.77;0.70;;;13.30;95.90;;;;;;5067453;28;20509;-81
2021/07/06 04:29:53;;;;;;;0.93;0.40;;;13.30;96.00;;;;;;5048399;28;20388;-82
2021/07/06 04:32:20;;;;;;;0.70;0.30;;;13.30;95.90;;;;;;5047996;28;20368;-82
2021/07/06 04:34:49;;;;;;;1.17;0.38;;;13.30;95.50;;;;;;5058500;28;20946;-82
2021/07/06 04:37:17;;;;;;;1.85;0.60;;;13.30;96.30;;;;;;5053525;28;20401;-82
2021/07/06 04:39:44;;;;;;;1.50;0.40;;;13.20;96.60;;;;;;5053274;28;20746;-80
2021/07/06 04:42:16;;;;;;;1.45;0.40;;;13.20;96.50;;;;;;5054932;28;20841;-81
2021/07/06 04:44:44;;;;;;;2.50;0.50;;;13.10;96.50;;;;;;5051645;28;20392;-81
2021/07/06 04:47:11;;;;;;;1.80;0.52;;;13.10;97.00;;;;;;5051759;28;20475;-81
2021/07/06 04:49:38;;;;;;;1.17;0.40;;;13.10;97.70;;;;;;5064760;28;20395;-80
2021/07/06 04:52:05;;;;;;;2.07;0.60;;;13.00;97.40;;;;;;5065393;28;20394;-80
2021/07/06 04:54:32;;;;;;;1.00;0.52;;;12.90;97.40;;;;;;5054147;28;20487;-81
2021/07/06 04:56:59;;;;;;;1.38;0.60;;;13.00;97.80;;;;;;5062441;28;20753;-81
2021/07/06 04:59:27;;;;;;;0.82;0.50;;;13.00;99.20;;;;;;5064393;28;20471;-81
2021/07/06 05:01:54;;;;;;;2.55;0.45;;;12.90;99.60;;;;;;5055464;28;20892;-81
2021/07/06 05:04:21;;;;;;;1.45;0.60;;;12.90;99.00;;;;;;5052976;28;20426;-82
2021/07/06 05:06:48;;;;;;;0.70;0.50;;;12.80;98.40;;;;;;5070844;28;20377;-83
2021/07/06 05:09:15;;;;;;;1.73;0.52;;;12.90;99.10;;;;;;5066779;28;20401;-81
2021/07/06 05:11:42;;;;;;;1.55;0.40;;;12.90;98.60;;;;;;5061369;28;20482;-82
2021/07/06 05:14:09;;;;;;;1.90;0.60;;;12.80;98.30;;;;;;5054477;28;20395;-81
2021/07/06 05:16:36;;;;;;;0.77;0.70;;;12.80;98.30;;;;;;5072407;28;20385;-80
2021/07/06 05:19:03;;;;;;;1.80;0.47;;;12.70;98.00;;;;;;5059048;28;20413;-81
2021/07/06 05:21:30;;;;;;;1.20;0.60;;;12.70;98.40;;;;;;5061595;28;20422;-81
2021/07/06 05:23:57;;;;;;;1.52;0.50;;;12.70;97.80;;;;;;5056566;28;20490;-81
2021/07/06 05:26:24;;;;;;;3.22;0.98;;;12.60;97.70;;;;;;5056662;28;20369;-82
2021/07/06 05:28:51;;;;;;;1.40;0.50;;;12.60;98.10;;;;;;5056101;28;20391;-82
2021/07/06 05:31:18;;;;;;;1.63;0.52;;;12.60;97.60;;;;;;5051108;28;20369;-81
2021/07/06 05:33:45;;;;;;;2.08;0.50;;;12.50;97.50;;;;;;5052124;28;20431;-83
2021/07/06 05:36:12;;;;;;;2.70;0.50;;;12.50;97.90;;;;;;5054820;28;20392;-82
2021/07/06 05:38:39;;;;;;;0.50;0.43;;;12.50;97.70;;;;;;5057014;28;20387;-81
2021/07/06 05:41:08;;;;;;;2.30;0.70;;;12.40;97.10;;;;;;5058708;28;20774;-81
2021/07/06 05:43:35;;;;;;;1.10;0.60;;;12.30;97.60;;;;;;5066706;28;20912;-81
2021/07/06 05:46:02;;;;;;;1.08;0.57;;;12.30;97.60;;;;;;5053320;28;20396;-82
2021/07/06 05:48:29;;;;;;;1.67;0.70;;;12.20;98.50;;;;;;5050741;28;20388;-81
2021/07/06 05:50:56;;;;;;;0.60;0.50;;;12.10;98.80;;;;;;5049556;28;20379;-80
2021/07/06 05:53:23;;;;;;;1.30;0.60;;;12.10;99.20;;;;;;5050872;28;20502;-81
2021/07/06 05:55:50;;;;;;;0.90;0.50;;;12.00;99.90;;;;;;5062940;28;20394;-81
2021/07/06 05:58:17;;;;;;;1.33;0.77;;;11.90;99.90;;;;;;5051846;28;20431;-81
2021/07/06 06:00:44;;;;;;;0.80;0.70;;;11.80;99.90;;;;;;5061857;28;20828;-81
2021/07/06 06:03:11;;;;;;;1.40;0.70;;;11.80;99.90;;;;;;5057780;28;20410;-82
2021/07/06 06:05:40;;;;;;;1.40;0.82;;;11.70;99.90;;;;;;5068186;28;20690;-82
2021/07/06 06:08:08;;;;;;;0.50;0.50;;;11.60;99.90;;;;;;5061775;28;20374;-81
2021/07/06 06:10:35;;;;;;;1.17;0.80;;;11.60;99.90;;;;;;5072201;28;20383;-82
2021/07/06 06:13:03;;;;;;;1.05;0.65;;;11.50;99.90;;;;;;5066280;28;20381;-82
2021/07/06 06:15:30;;;;;;;2.90;0.70;;;11.50;99.90;;;;;;5070851;28;20382;-81
2021/07/06 06:17:57;;;;;;;0.88;0.77;;;11.40;99.90;;;;;;5069868;28;20373;-81
2021/07/06 06:20:24;;;;;;;0.70;0.60;;;11.40;99.90;;;;;;5070213;28;20405;-81
2021/07/06 06:22:51;;;;;;;1.50;0.60;;;11.30;99.90;;;;;;5070211;28;20434;-81
2021/07/06 06:25:18;;;;;;;2.08;0.70;;;11.10;99.90;;;;;;5056261;28;20449;-81
2021/07/06 06:27:45;;;;;;;1.02;0.60;;;11.00;99.90;;;;;;5050114;28;20461;-82
2021/07/06 06:30:13;;;;;;;1.40;0.80;;;11.00;99.90;;;;;;5050271;28;20433;-81
2021/07/06 06:32:40;;;;;;;2.60;0.63;;;10.90;99.90;;;;;;5050259;28;21284;-82
2021/07/06 06:35:08;;;;;;;1.00;0.60;;;10.90;99.90;;;;;;5050048;28;20418;-81
2021/07/06 06:37:35;;;;;;;2.05;0.60;;;10.80;99.90;;;;;;5049924;28;20785;-80
2021/07/06 06:40:02;;;;;;;2.20;0.93;;;10.70;99.90;;;;;;5052779;28;20403;-81
2021/07/06 06:42:29;;;;;;;2.63;0.85;;;10.60;99.90;;;;;;5064106;28;20406;-82
2021/07/06 06:44:56;;;;;;;1.00;0.85;;;10.60;99.90;;;;;;5057629;28;20384;-81
2021/07/06 06:47:23;;;;;;;1.15;1.15;;;10.50;99.90;;;;;;5049961;28;20463;-82
2021/07/06 06:49:50;;;;;;;1.27;1.10;;;10.50;99.90;;;;;;5049745;28;20376;-82
2021/07/06 06:52:17;;;;;;;1.00;0.90;;;10.40;99.90;;;;;;5049936;28;20882;-81
2021/07/06 06:54:44;;;;;;;1.70;1.02;;;10.40;99.90;;;;;;5049935;28;20372;-82
2021/07/06 06:57:11;;;;;;;2.53;0.90;;;10.30;99.90;;;;;;5049193;28;20380;-82
2021/07/06 06:59:38;;;;;;;2.13;0.90;;;10.30;99.90;;;;;;5056394;28;20443;-82
2021/07/06 07:02:17;;;;;;;2.40;0.98;;;10.20;99.90;;;;;;5069593;28;20447;-82
2021/07/06 07:04:53;;;;;;;2.55;1.13;;;10.10;99.90;;;;;;5069759;28;20397;-82
2021/07/06 07:07:22;;;;;;;1.55;1.10;;;10.10;99.90;;;;;;5049512;28;20843;-82
2021/07/06 07:09:50;;;;;;;1.20;1.10;;;10.00;99.90;;;;;;5050523;28;20391;-81
2021/07/06 07:12:18;;;;;;;1.60;1.00;;;10.00;99.90;;;;;;5069438;28;20861;-82
2021/07/06 07:14:46;;;;;;;3.47;1.25;;;9.90;99.90;;;;;;5069849;28;20385;-82
2021/07/06 07:17:13;;;;;;;2.03;1.30;;;9.90;99.90;;;;;;5068698;28;20390;-81
2021/07/06 07:19:40;;;;;;;2.17;1.33;;;9.80;99.90;;;;;;5069163;28;20370;-82
2021/07/06 07:22:08;;;;;;;2.40;1.70;;;9.70;99.90;;;;;;5062752;28;20497;-82
2021/07/06 07:24:36;;;;;;;1.95;1.42;;;9.70;99.90;;;;;;5056813;28;20885;-82
2021/07/06 07:27:04;;;;;;;2.70;1.13;;;9.60;99.90;;;;;;5066951;28;20389;-82
2021/07/06 07:29:31;;;;;;;4.60;3.03;;;9.60;99.90;;;;;;5051227;28;20380;-82
2021/07/06 07:31:58;;;;;;;9.38;7.07;;;9.60;99.90;;;;;;5052782;28;20431;-82
2021/07/06 07:34:25;;;;;;;12.27;9.05;;;9.50;99.90;;;;;;5063101;28;20393;-82
2021/07/06 07:36:52;;;;;;;19.75;15.25;;;9.50;99.90;;;;;;5051875;28;20410;-83
2021/07/06 07:39:19;;;;;;;13.67;10.13;;;9.50;99.90;;;;;;5050617;28;20391;-80
2021/07/06 07:41:46;;;;;;;24.15;18.58;;;9.40;99.90;;;;;;5048693;28;20410;-82
2021/07/06 07:44:13;;;;;;;35.33;26.73;;;9.40;99.90;;;;;;5049331;28;20749;-83
2021/07/06 07:46:40;;;;;;;22.25;17.67;;;9.40;99.90;;;;;;5058148;28;20382;-82
2021/07/06 07:49:07;;;;;;;10.02;8.63;;;9.40;99.90;;;;;;5067349;28;20542;-83
2021/07/06 07:51:34;;;;;;;8.00;6.70;;;9.40;99.90;;;;;;5068168;28;20358;-81
2021/07/06 07:54:01;;;;;;;7.85;5.20;;;9.40;99.90;;;;;;5080884;28;20392;-81
2021/07/06 07:56:28;;;;;;;4.88;3.22;;;9.40;99.90;;;;;;5069411;28;20471;-83
2021/07/06 07:58:55;;;;;;;3.00;2.47;;;9.40;99.90;;;;;;5066886;28;20366;-82
2021/07/06 08:01:22;;;;;;;3.35;1.77;;;9.40;99.90;;;;;;5050597;28;20397;-83
2021/07/06 08:03:49;;;;;;;3.60;1.52;;;9.40;99.90;;;;;;5049041;28;20407;-82
2021/07/06 08:06:16;;;;;;;3.53;2.10;;;9.40;99.90;;;;;;5055627;28;20429;-83
2021/07/06 08:08:43;;;;;;;3.33;1.77;;;9.30;99.90;;;;;;5069178;28;20394;-82
2021/07/06 08:11:10;;;;;;;3.65;2.20;;;9.30;99.90;;;;;;5071428;28;20788;-82
2021/07/06 08:13:37;;;;;;;3.92;1.52;;;9.20;99.90;;;;;;5067059;28;20390;-82
2021/07/06 08:16:05;;;;;;;4.53;1.40;;;9.10;99.90;;;;;;5055012;28;20805;-81
2021/07/06 08:18:32;;;;;;;5.07;1.50;;;9.10;99.90;;;;;;5072563;28;20534;-81
2021/07/06 08:20:59;;;;;;;4.05;1.63;;;9.00;99.90;;;;;;5070879;28;20481;-80
2021/07/06 08:23:26;;;;;;;1.98;1.60;;;8.90;99.90;;;;;;5056483;28;20519;-82
2021/07/06 08:25:54;;;;;;;2.78;1.58;;;8.90;99.90;;;;;;5061193;28;20759;-82
2021/07/06 08:28:25;;;;;;;2.43;1.57;;;8.80;99.90;;;;;;5071530;28;20389;-82
2021/07/06 08:30:53;;;;;;;4.25;2.05;;;8.80;99.90;;;;;;5065528;28;20526;-81
2021/07/06 08:33:20;;;;;;;4.90;2.17;;;8.70;99.90;;;;;;5060078;28;20892;-82
2021/07/06 08:35:47;;;;;;;5.28;2.92;;;8.70;99.90;;;;;;5066069;28;20405;-82
2021/07/06 08:38:14;;;;;;;4.90;2.00;;;8.70;99.90;;;;;;5063213;28;20575;-83
2021/07/06 08:40:43;;;;;;;6.03;2.72;;;8.60;99.90;;;;;;5052261;28;20390;-82
2021/07/06 08:43:11;;;;;;;9.15;2.78;;;8.50;99.90;;;;;;5055144;28;21128;-83
2021/07/06 08:45:38;;;;;;;6.22;3.40;;;8.50;99.90;;;;;;5061334;28;20408;-85
2021/07/06 08:48:05;;;;;;;5.75;3.20;;;8.40;99.90;;;;;;5053599;28;20659;-83
2021/07/06 08:50:32;;;;;;;4.78;3.15;;;8.30;99.90;;;;;;5059408;28;20748;-85
2021/07/06 08:52:59;;;;;;;11.13;7.75;;;8.30;99.90;;;;;;5067124;28;20464;-82
2021/07/06 08:55:26;;;;;;;7.22;4.50;;;8.20;99.90;;;;;;5057576;28;20882;-81
2021/07/06 08:57:54;;;;;;;7.88;4.32;;;8.20;99.90;;;;;;5069917;28;20426;-84
2021/07/06 09:00:22;;;;;;;7.22;3.67;;;8.20;99.90;;;;;;5056542;28;20386;-83
2021/07/06 09:02:59;;;;;;;6.53;3.47;;;8.20;99.90;;;;;;5059410;28;20889;-82
2021/07/06 09:05:27;;;;;;;4.50;3.15;;;8.20;99.90;;;;;;5052585;28;20434;-81
2021/07/06 09:07:54;;;;;;;8.25;3.30;;;8.20;99.90;;;;;;5052350;28;20391;-81
2021/07/06 09:10:26;;;;;;;5.25;2.50;;;8.20;99.90;;;;;;5052672;28;20407;-82
2021/07/06 09:12:54;;;;;;;5.50;2.63;;;8.20;99.90;;;;;;5052295;28;20524;-81
2021/07/06 09:15:32;;;;;;;3.88;2.47;;;8.20;99.90;;;;;;5055505;28;20399;-82
2021/07/06 09:18:15;;;;;;;6.27;2.40;;;8.20;99.90;;;;;;5059901;28;20394;-81
2021/07/06 09:20:57;;;;;;;5.43;2.13;;;8.20;99.90;;;;;;5065552;28;20394;-82
2021/07/06 09:23:34;;;;;;;4.00;2.00;;;8.20;99.90;;;;;;5052841;28;20509;-81
2021/07/06 09:26:15;;;;;;;5.43;2.20;;;8.10;99.90;;;;;;5053488;28;20528;-83
2021/07/06 09:28:48;;;;;;;7.72;3.75;;;8.20;99.90;;;;;;5059504;28;20378;-82
2021/07/06 09:31:27;;;;;;;4.35;2.50;;;8.10;99.90;;;;;;5066126;28;20384;-82
2021/07/06 09:33:58;;;;;;;5.33;2.60;;;8.10;99.90;;;;;;5056268;28;20394;-81
2021/07/06 09:36:47;;;;;;;5.20;2.42;;;8.10;99.90;;;;;;5054538;28;20892;-82
2021/07/06 09:39:20;;;;;;;5.20;2.28;;;8.10;99.90;;;;;;5056343;28;20886;-82
2021/07/06 09:42:00;;;;;;;6.40;2.67;;;8.10;99.90;;;;;;5061739;28;21129;-82
2021/07/06 09:44:29;;;;;;;6.22;2.65;;;8.10;99.90;;;;;;5054381;28;20492;-82
2021/07/06 09:47:04;;;;;;;5.38;2.33;;;8.10;99.90;;;;;;5054108;28;20409;-82
2021/07/06 09:49:37;;;;;;;7.25;2.85;;;8.10;99.90;;;;;;5051869;28;20500;-82
2021/07/06 09:52:17;;;;;;;8.80;2.83;;;8.10;99.90;;;;;;5052887;28;20862;-82
2021/07/06 09:54:49;;;;;;;5.03;2.50;;;8.10;99.90;;;;;;5056722;28;20399;-82
2021/07/06 09:57:30;;;;;;;4.97;2.65;;;8.00;99.90;;;;;;5057570;28;20396;-82
2021/07/06 09:59:59;;;;;;;7.25;3.17;;;8.00;99.90;;;;;;5069074;28;20382;-82
2021/07/06 10:02:28;;;;;;;9.93;4.00;;;8.00;99.90;;;;;;5062720;28;20843;-82
2021/07/06 10:04:58;;;;;;;8.48;4.45;;;7.90;99.90;;;;;;5061316;28;20511;-83
2021/07/06 10:07:26;;;;;;;9.10;5.88;;;7.70;99.90;;;;;;5058871;28;20387;-82
2021/07/06 10:09:54;;;;;;;10.97;6.87;;;7.70;99.90;;;;;;5056392;28;20472;-82
2021/07/06 10:12:22;;;;;;;10.98;6.97;;;7.70;99.90;;;;;;5050725;28;20394;-82
2021/07/06 10:14:49;;;;;;;9.47;5.63;;;7.60;99.90;;;;;;5050484;28;20429;-82
2021/07/06 10:17:16;;;;;;;11.90;6.47;;;7.60;99.90;;;;;;5053870;28;20442;-83
2021/07/06 10:19:46;;;;;;;9.65;5.75;;;7.60;99.90;;;;;;5051451;28;20391;-83
2021/07/06 10:22:14;;;;;;;15.17;8.30;;;7.60;99.90;;;;;;5052979;28;20489;-84
2021/07/06 10:24:44;;;;;;;9.75;5.93;;;7.60;99.90;;;;;;5051730;28;20482;-83
2021/07/06 10:27:27;;;;;;;8.37;5.67;;;7.50;99.90;;;;;;5062200;28;20562;-81
2021/07/06 10:30:31;;;;;;;11.02;5.68;;;7.50;99.90;;;;;;5067161;28;20386;-82
2021/07/06 10:33:00;;;;;;;7.95;4.43;;;7.50;99.90;;;;;;5037373;28;20507;-85
2021/07/06 10:35:42;;;;;;;7.53;4.43;;;7.50;99.90;;;;;;5052874;28;20395;-84
2021/07/06 10:40:56;;;;;;;10.48;4.70;;;7.50;99.90;;;;;;5048871;28;20426;-83
2021/07/06 10:43:40;;;;;;;8.35;4.30;;;7.50;99.90;;;;;;5049062;28;21478;-83
2021/07/06 10:46:30;;;;;;;11.23;5.03;;;7.50;99.90;;;;;;5052484;28;20400;-82
2021/07/06 10:49:03;;;;;;;9.38;4.70;;;7.50;99.90;;;;;;5055542;28;20437;-82
2021/07/06 10:51:37;;;;;;;10.77;4.85;;;7.50;99.90;;;;;;5050161;28;21645;-82
2021/07/06 10:54:32;;;;;;;12.57;7.57;;;7.40;99.90;;;;;;5046233;28;20399;-83
2021/07/06 10:57:13;;;;;;;8.90;5.80;;;7.40;99.90;;;;;;5052485;28;20400;-82
2021/07/06 10:59:40;;;;;;;10.90;7.47;;;7.30;99.90;;;;;;5048572;28;20406;-83
2021/07/06 11:02:14;;;;;;;12.50;8.10;;;7.30;99.90;;;;;;5047525;28;20508;-82
2021/07/06 11:04:47;;;;;;;10.90;7.63;;;7.30;99.90;;;;;;5046785;28;20387;-83
2021/07/06 11:07:30;;;;;;;11.10;7.05;;;7.30;99.90;;;;;;5047083;28;20433;-83
2021/07/06 11:09:57;;;;;;;11.02;7.32;;;7.30;99.90;;;;;;5060030;28;20447;-82
2021/07/06 11:12:30;;;;;;;10.63;7.30;;;7.20;99.90;;;;;;5054489;28;20389;-83
2021/07/06 11:14:58;;;;;;;10.53;6.60;;;7.20;99.90;;;;;;5066872;28;20374;-83
2021/07/06 11:18:12;;;;;;;10.70;6.03;;;7.20;99.90;;;;;;5050353;28;20418;-82
2021/07/06 11:20:48;;;;;;;10.60;6.45;;;7.20;99.90;;;;;;5047031;28;20404;-83
2021/07/06 11:23:30;;;;;;;8.43;6.03;;;7.20;99.90;;;;;;5050208;28;20406;-84
2021/07/06 11:26:07;;;;;;;10.63;6.25;;;7.20;99.90;;;;;;5051154;28;21477;-83
2021/07/06 11:29:02;;;;;;;8.80;5.97;;;7.20;99.90;;;;;;5053845;28;20493;-83
2021/07/06 11:31:30;;;;;;;6.85;5.10;;;7.20;99.90;;;;;;5051298;28;20758;-83
2021/07/06 11:33:57;;;;;;;9.75;5.43;;;7.20;99.90;;;;;;5063154;28;20446;-83
2021/07/06 11:36:29;;;;;;;8.80;5.68;;;7.10;99.90;;;;;;5066171;28;20382;-83
2021/07/06 11:39:01;;;;;;;10.07;6.53;;;7.10;99.90;;;;;;5060362;28;20439;-82
2021/07/06 11:41:28;;;;;;;8.95;5.50;;;7.10;99.90;;;;;;5065960;28;20390;-83
2021/07/06 11:43:56;;;;;;;6.90;4.53;;;7.10;99.90;;;;;;5057423;28;20749;-83
2021/07/06 11:46:23;;;;;;;10.13;4.28;;;7.20;99.90;;;;;;5066731;28;20435;-83
2021/07/06 11:48:54;;;;;;;11.02;4.18;;;7.20;99.90;;;;;;5054694;28;20390;-83
2021/07/06 11:51:25;;;;;;;6.32;3.78;;;7.30;99.90;;;;;;5064437;28;20896;-83
2021/07/06 11:54:01;;;;;;;8.93;4.13;;;7.30;99.90;;;;;;5062197;28;20386;-84
2021/07/06 11:56:30;;;;;;;9.32;4.47;;;7.50;99.90;;;;;;5076466;28;20381;-84
2021/07/06 11:58:57;;;;;;;10.77;6.05;;;7.60;99.90;;;;;;5066939;28;20974;-84
2021/07/06 12:01:25;;;;;;;10.90;6.45;;;7.50;99.90;;;;;;5060769;28;20386;-86
2021/07/06 12:03:52;;;;;;;12.95;7.70;;;7.50;99.90;;;;;;5065515;28;20386;-84
2021/07/06 12:06:21;;;;;;;13.57;7.80;;;7.50;99.90;;;;;;5058877;28;20804;-84
2021/07/06 12:08:53;;;;;;;12.43;8.43;;;7.50;99.90;;;;;;5052965;28;20419;-84
2021/07/06 12:11:29;;;;;;;15.82;8.35;;;7.40;99.90;;;;;;5054101;28;20403;-83
2021/07/06 12:14:01;;;;;;;11.93;8.30;;;7.40;99.90;;;;;;5047711;28;20442;-84
2021/07/06 12:16:34;;;;;;;12.63;8.20;;;7.30;99.90;;;;;;5054657;28;20433;-83
2021/07/06 12:19:07;;;;;;;13.38;8.32;;;7.30;99.90;;;;;;5048837;28;20863;-83
2021/07/06 12:21:36;;;;;;;14.38;8.13;;;7.30;99.90;;;;;;5067026;28;20389;-84
2021/07/06 12:24:08;;;;;;;12.45;7.93;;;7.20;99.90;;;;;;5063385;28;20713;-83
2021/07/06 12:26:40;;;;;;;12.75;7.10;;;7.20;99.90;;;;;;5060228;28;20523;-83
2021/07/06 12:29:07;;;;;;;11.25;7.40;;;7.20;99.90;;;;;;5059468;28;20793;-84
2021/07/06 12:31:35;;;;;;;10.98;5.90;;;7.20;99.90;;;;;;5048535;28;20391;-84
2021/07/06 12:34:13;;;;;;;12.35;6.10;;;7.10;99.90;;;;;;5048746;28;20391;-82
2021/07/06 12:37:09;;;;;;;10.57;6.10;;;7.10;99.90;;;;;;5061222;28;20788;-84
2021/07/06 12:39:38;;;;;;;9.63;5.78;;;7.10;99.90;;;;;;5057136;28;20435;-83
2021/07/06 12:42:22;;;;;;;6.47;4.72;;;7.10;99.90;;;;;;5053352;28;20908;-85
2021/07/06 12:44:55;;;;;;;8.57;5.30;;;7.10;99.90;;;;;;5068669;28;20433;-85
2021/07/06 12:47:22;;;;;;;7.85;4.55;;;7.00;99.90;;;;;;5064236;28;20471;-83
2021/07/06 12:49:58;;;;;;;8.50;4.73;;;7.00;99.90;;;;;;5054309;28;20465;-84
2021/07/06 12:52:34;;;;;;;7.05;4.70;;;7.00;99.90;;;;;;5048232;28;20458;-84
2021/07/06 12:55:08;;;;;;;6.95;4.82;;;7.00;99.90;;;;;;5049957;28;20394;-84
2021/07/06 12:57:36;;;;;;;8.30;5.30;;;7.00;99.90;;;;;;5050760;28;20477;-84
2021/07/06 13:00:13;;;;;;;9.07;5.13;;;6.90;99.90;;;;;;5052687;28;20421;-84
2021/07/06 13:02:42;;;;;;;8.93;5.53;;;6.90;99.90;;;;;;5053084;28;20414;-83
2021/07/06 13:05:40;;;;;;;7.88;5.60;;;6.80;99.90;;;;;;5052645;28;20411;-84